Time;durP1;ratioP1;P1;durP2;ratioP2;P2;SDS_P1;SDS_P2;PMS_P1;PMS_P2;Temp;Humidity;BMP_temperature;BMP_pressure;BME280_temperature;BME280_humidity;BME280_pressure;Samples;Min_cycle;Max_cycle;Signal;HPM_P1;HPM_P2
2022/07/15 00:01:15;;;;;;;10.27;1.67;;;;;;;21.03;45.90;94738.38;4173732;28;20045;-55
2022/07/15 00:03:17;;;;;;;3.55;1.35;;;;;;;21.10;45.72;94743.66;4159251;28;20053;-55
2022/07/15 00:05:19;;;;;;;7.45;1.63;;;;;;;21.11;45.67;94741.78;4169384;28;20279;-53
2022/07/15 00:07:21;;;;;;;4.28;1.65;;;;;;;21.13;45.66;94745.84;4165602;28;20104;-55
2022/07/15 00:10:13;;;;;;;4.43;1.60;;;;;;;21.13;46.12;94742.38;4174305;28;20106;-53
2022/07/15 00:11:44;;;;;;;4.57;1.75;;;;;;;21.09;46.43;94749.19;4161043;28;20119;-56
2022/07/15 00:13:46;;;;;;;8.05;2.17;;;;;;;21.10;46.53;94748.13;4167882;28;20492;-55
2022/07/15 00:15:48;;;;;;;4.07;2.60;;;;;;;21.10;46.59;94746.31;4169590;28;20045;-55
2022/07/15 00:17:50;;;;;;;4.00;2.20;;;;;;;20.52;48.65;94752.00;4172321;28;20144;-53
2022/07/15 00:19:51;;;;;;;3.95;2.22;;;;;;;19.76;50.51;94753.84;4170634;28;20060;-54
2022/07/15 00:21:53;;;;;;;4.65;2.45;;;;;;;19.64;50.82;94751.84;4163949;28;20075;-55
2022/07/15 00:23:55;;;;;;;5.43;2.60;;;;;;;19.80;50.51;94752.38;4173441;28;20057;-54
2022/07/15 00:25:56;;;;;;;5.13;2.17;;;;;;;19.99;50.34;94762.06;4163301;28;20124;-55
2022/07/15 00:28:03;;;;;;;8.85;4.20;;;;;;;20.19;49.56;94758.44;4176443;28;20049;-55
2022/07/15 00:30:05;;;;;;;21.52;8.32;;;;;;;20.34;49.22;94748.28;4175521;28;20472;-57
2022/07/15 00:32:07;;;;;;;18.30;9.25;;;;;;;20.45;49.17;94752.88;4160423;28;20049;-51
2022/07/15 00:34:09;;;;;;;30.75;14.20;;;;;;;20.45;49.24;94750.19;4157864;28;20074;-54
2022/07/15 00:36:11;;;;;;;33.70;16.02;;;;;;;20.35;49.53;94755.22;4160080;28;20072;-56
2022/07/15 00:38:12;;;;;;;42.53;17.00;;;;;;;20.33;49.69;94748.50;4158776;28;20163;-54
2022/07/15 00:40:16;;;;;;;;;;;;;;;20.35;49.82;94747.25;4170363;28;20064;-52
2022/07/15 00:44:38;;;;;;;32.92;15.48;;;;;;;20.47;49.44;94742.00;4159713;28;20136;-53
2022/07/15 00:46:40;;;;;;;29.98;13.82;;;;;;;20.55;49.50;94738.25;4160209;28;20054;-54
2022/07/15 00:48:42;;;;;;;32.07;14.80;;;;;;;20.60;49.18;94743.75;4158111;28;20164;-54
2022/07/15 00:50:44;;;;;;;33.83;14.65;;;;;;;20.63;49.07;94741.47;4158801;28;20049;-51
2022/07/15 00:52:50;;;;;;;27.20;12.65;;;;;;;20.63;49.32;94738.81;4163596;28;20053;-55
2022/07/15 00:54:53;;;;;;;26.20;10.77;;;;;;;20.61;49.35;94726.78;4175748;28;20061;-52
2022/07/15 00:56:56;;;;;;;23.67;9.33;;;;;;;20.57;49.53;94728.22;4175275;28;20417;-54
2022/07/15 00:58:59;;;;;;;23.73;10.63;;;;;;;20.49;49.66;94720.50;4175710;28;20245;-52
2022/07/15 01:01:01;;;;;;;21.83;10.40;;;;;;;20.43;49.87;94720.38;4175494;28;20151;-49
2022/07/15 01:03:03;;;;;;;26.02;10.32;;;;;;;20.45;49.96;94718.28;4169153;28;20080;-53
2022/07/15 01:05:06;;;;;;;20.27;8.63;;;;;;;20.50;49.89;94722.13;4165762;28;20412;-55
2022/07/15 01:07:08;;;;;;;18.77;8.75;;;;;;;20.51;49.57;94724.56;4172257;28;20068;-54
2022/07/15 01:09:09;;;;;;;11.85;4.80;;;;;;;20.40;49.20;94728.78;4158358;28;20107;-52
2022/07/15 01:11:11;;;;;;;12.77;6.60;;;;;;;20.28;49.56;94719.06;4158645;28;20049;-52
2022/07/15 01:13:14;;;;;;;10.52;4.53;;;;;;;20.00;50.31;94722.97;4159494;28;20045;-52
2022/07/15 01:15:17;;;;;;;8.00;3.78;;;;;;;19.60;51.22;94718.75;4159861;28;20049;-54
2022/07/15 01:17:19;;;;;;;7.70;3.13;;;;;;;19.31;51.66;94732.59;4172795;28;20156;-51
2022/07/15 01:19:20;;;;;;;6.25;2.75;;;;;;;19.21;51.81;94728.56;4174547;28;20485;-54
2022/07/15 01:21:22;;;;;;;8.60;4.30;;;;;;;19.22;52.13;94730.19;4174971;28;20049;-52
2022/07/15 01:23:24;;;;;;;9.52;4.72;;;;;;;19.37;52.21;94724.59;4166297;28;20100;-52
2022/07/15 01:25:26;;;;;;;11.68;4.63;;;;;;;19.56;51.64;94720.19;4163836;28;20122;-54
2022/07/15 01:27:28;;;;;;;7.95;4.28;;;;;;;19.71;51.26;94713.81;4167350;28;20045;-54
2022/07/15 01:29:30;;;;;;;11.48;5.40;;;;;;;19.86;51.24;94716.16;4167311;28;20118;-49
2022/07/15 01:31:44;;;;;;;7.57;4.60;;;;;;;19.97;50.80;94716.25;4162321;28;20045;-53
2022/07/15 01:33:46;;;;;;;;;;;;;;;20.04;50.35;94706.38;4167051;28;20084;-53
2022/07/15 01:35:48;;;;;;;9.15;2.95;;;;;;;20.11;49.92;94711.66;4161252;28;19925;-54
2022/07/15 01:37:50;;;;;;;5.25;3.15;;;;;;;20.18;49.71;94711.59;4161847;28;20127;-52
2022/07/15 01:39:52;;;;;;;8.88;3.75;;;;;;;20.22;49.74;94702.97;4159100;28;20401;-53
2022/07/15 01:41:54;;;;;;;5.95;3.72;;;;;;;20.19;50.13;94708.69;4160691;28;20106;-54
2022/07/15 01:43:56;;;;;;;9.02;4.15;;;;;;;20.17;50.30;94705.44;4158122;28;20314;-52
2022/07/15 01:45:57;;;;;;;8.60;4.38;;;;;;;20.18;50.33;94711.59;4165536;28;20473;-51
2022/07/15 01:47:59;;;;;;;9.63;4.35;;;;;;;20.16;50.48;94711.81;4164140;28;20109;-54
2022/07/15 01:50:01;;;;;;;6.93;3.15;;;;;;;20.19;50.29;94715.88;4166590;28;20456;-50
2022/07/15 01:52:03;;;;;;;7.82;3.10;;;;;;;20.19;49.93;94713.22;4158997;28;20057;-52
2022/07/15 01:54:05;;;;;;;11.73;3.58;;;;;;;20.20;49.85;94705.03;4159185;28;20111;-53
2022/07/15 01:56:07;;;;;;;5.22;3.20;;;;;;;20.07;50.17;94714.94;4159690;28;20049;-53
2022/07/15 01:58:09;;;;;;;9.20;3.63;;;;;;;19.68;51.28;94719.50;4157977;28;20472;-53
2022/07/15 02:00:12;;;;;;;8.48;3.42;;;;;;;19.33;52.28;94722.59;4166699;28;20061;-54
2022/07/15 02:02:14;;;;;;;6.97;3.33;;;;;;;19.07;53.32;94727.00;4175117;28;20052;-51
2022/07/15 02:04:16;;;;;;;6.85;3.22;;;;;;;18.96;53.39;94725.81;4160123;28;20465;-53
2022/07/15 02:06:18;;;;;;;5.05;2.90;;;;;;;18.98;53.30;94718.44;4158203;28;20049;-52
2022/07/15 02:08:20;;;;;;;4.30;2.40;;;;;;;19.11;52.61;94727.41;4164064;28;20106;-53
2022/07/15 02:10:22;;;;;;;3.53;2.30;;;;;;;19.26;51.86;94722.63;4167704;28;20114;-50
2022/07/15 02:12:25;;;;;;;5.30;2.40;;;;;;;19.39;51.31;94714.56;4161198;28;20307;-51
2022/07/15 02:14:27;;;;;;;6.07;2.30;;;;;;;19.49;51.09;94722.09;4158358;28;20065;-54
2022/07/15 02:16:32;;;;;;;4.13;2.30;;;;;;;19.60;50.62;94721.41;4173631;28;20048;-50
2022/07/15 02:18:34;;;;;;;7.25;2.33;;;;;;;19.69;50.36;94718.50;4159854;28;20058;-53
2022/07/15 02:20:37;;;;;;;7.15;2.17;;;;;;;19.77;50.25;94718.28;4158526;28;20041;-52
2022/07/15 02:22:38;;;;;;;3.65;2.30;;;;;;;19.84;50.50;94722.50;4163300;28;20055;-49
2022/07/15 02:24:40;;;;;;;3.95;2.33;;;;;;;19.88;50.67;94720.22;4175272;28;20114;-53
2022/07/15 02:26:43;;;;;;;4.30;2.58;;;;;;;19.90;50.79;94725.34;4171274;28;20567;-52
2022/07/15 02:28:45;;;;;;;5.05;2.35;;;;;;;19.94;50.43;94722.03;4168568;28;20195;-54
2022/07/15 02:30:47;;;;;;;6.78;2.25;;;;;;;19.95;50.09;94722.81;4159705;28;20552;-52
2022/07/15 02:32:48;;;;;;;5.05;2.08;;;;;;;19.91;50.00;94719.78;4173292;28;20041;-53
2022/07/15 02:34:50;;;;;;;5.03;2.55;;;;;;;19.91;50.10;94725.09;4168511;28;20122;-50
2022/07/15 02:36:52;;;;;;;5.43;2.50;;;;;;;19.90;50.49;94723.47;4158520;28;20084;-50
2022/07/15 02:38:53;;;;;;;3.92;2.38;;;;;;;19.86;50.73;94719.63;4171476;28;20052;-51
2022/07/15 02:40:55;;;;;;;5.03;2.60;;;;;;;19.86;50.94;94719.63;4172690;28;20546;-52
2022/07/15 02:42:58;;;;;;;5.53;2.55;;;;;;;19.86;51.30;94716.16;4162497;28;20057;-52
2022/07/15 02:45:00;;;;;;;10.63;3.75;;;;;;;19.84;51.53;94713.72;4168535;28;20053;-54
2022/07/15 02:47:02;;;;;;;9.23;3.75;;;;;;;19.85;51.72;94715.31;4158755;28;20057;-53
2022/07/15 02:49:03;;;;;;;7.70;3.45;;;;;;;19.88;51.63;94716.75;4167880;28;20532;-51
2022/07/15 02:51:06;;;;;;;9.65;3.33;;;;;;;19.91;51.69;94711.81;4158702;28;20556;-51
2022/07/15 02:53:08;;;;;;;13.15;3.90;;;;;;;19.90;51.70;94717.34;4159136;28;20058;-51
2022/07/15 02:55:11;;;;;;;7.25;3.97;;;;;;;19.89;51.82;94711.19;4158404;28;20068;-50
2022/07/15 02:57:13;;;;;;;8.35;4.18;;;;;;;19.87;51.98;94715.91;4170042;28;20477;-52
2022/07/15 02:59:15;;;;;;;8.15;3.72;;;;;;;19.85;51.91;94712.66;4177634;28;20049;-51
2022/07/15 03:01:16;;;;;;;12.02;4.57;;;;;;;19.87;51.92;94710.59;4163537;28;20108;-55
2022/07/15 03:03:19;;;;;;;7.00;4.15;;;;;;;19.83;52.08;94707.59;4162261;28;20386;-52
2022/07/15 03:05:21;;;;;;;7.65;4.28;;;;;;;19.83;52.09;94714.72;4177057;28;20045;-57
2022/07/15 03:07:23;;;;;;;11.23;4.30;;;;;;;19.83;52.08;94710.25;4178155;28;20048;-52
2022/07/15 03:09:25;;;;;;;6.72;4.28;;;;;;;19.82;51.96;94713.09;4166544;28;20054;-58
2022/07/15 03:11:27;;;;;;;7.82;4.05;;;;;;;19.79;51.72;94708.25;4174501;28;20048;-55
2022/07/15 03:13:29;;;;;;;6.88;3.83;;;;;;;19.69;52.33;94713.97;4162262;28;20246;-55
2022/07/15 03:15:30;;;;;;;5.18;3.60;;;;;;;19.70;52.19;94709.50;4177149;28;20064;-55
2022/07/15 03:17:32;;;;;;;8.05;3.97;;;;;;;19.68;51.71;94708.88;4173871;28;20147;-54
2022/07/15 03:19:34;;;;;;;5.40;2.97;;;;;;;19.55;51.40;94707.13;4175108;28;20044;-53
2022/07/15 03:21:35;;;;;;;4.85;2.60;;;;;;;19.44;51.71;94713.94;4177095;28;20049;-54
2022/07/15 03:23:37;;;;;;;5.60;3.13;;;;;;;19.36;52.02;94706.22;4176601;28;20049;-57
2022/07/15 03:25:39;;;;;;;6.30;3.00;;;;;;;19.23;52.20;94715.91;4161676;28;20468;-55
2022/07/15 03:27:41;;;;;;;7.05;3.00;;;;;;;19.09;52.62;94703.69;4160212;28;20057;-56
2022/07/15 03:29:43;;;;;;;5.47;3.03;;;;;;;19.00;53.25;94708.44;4164092;28;20114;-53
2022/07/15 03:31:45;;;;;;;5.63;3.25;;;;;;;18.98;53.35;94713.16;4174175;28;20045;-54
2022/07/15 03:33:47;;;;;;;5.78;3.20;;;;;;;19.07;53.34;94710.25;4175132;28;20137;-56
2022/07/15 03:35:54;;;;;;;7.38;3.67;;;;;;;19.14;53.15;94716.34;4173106;28;20127;-55
2022/07/15 03:37:56;;;;;;;6.47;3.10;;;;;;;19.24;52.71;94712.19;4167567;28;20374;-56
2022/07/15 03:39:58;;;;;;;9.40;2.90;;;;;;;19.34;52.42;94711.75;4167432;28;20042;-57
2022/07/15 03:42:00;;;;;;;5.70;3.10;;;;;;;19.42;52.46;94703.53;4173265;28;20070;-57
2022/07/15 03:44:02;;;;;;;4.47;2.70;;;;;;;19.52;51.99;94708.38;4175772;28;20045;-57
2022/07/15 03:46:04;;;;;;;8.50;2.88;;;;;;;19.59;51.77;94705.66;4173975;28;20560;-55
2022/07/15 03:48:06;;;;;;;7.25;2.97;;;;;;;19.59;51.66;94710.97;4159030;28;20441;-57
2022/07/15 03:50:08;;;;;;;9.82;3.55;;;;;;;19.57;51.72;94705.88;4161333;28;20072;-56
2022/07/15 03:52:10;;;;;;;12.63;3.65;;;;;;;19.55;51.75;94707.97;4172941;28;20106;-56
2022/07/15 03:54:11;;;;;;;8.23;3.40;;;;;;;19.55;51.84;94715.94;4161312;28;20107;-56
2022/07/15 03:56:13;;;;;;;6.43;3.00;;;;;;;19.63;51.88;94714.84;4160912;28;20045;-55
2022/07/15 03:58:15;;;;;;;4.18;2.70;;;;;;;19.65;51.86;94713.59;4158342;28;20324;-57
2022/07/15 04:00:17;;;;;;;10.77;3.45;;;;;;;19.73;51.54;94717.06;4161109;28;20045;-55
2022/07/15 04:02:19;;;;;;;6.50;2.55;;;;;;;19.79;51.16;94719.69;4172482;28;20045;-55
2022/07/15 04:04:21;;;;;;;9.55;2.60;;;;;;;19.88;51.11;94724.72;4174041;28;20156;-53
2022/07/15 04:06:24;;;;;;;6.25;2.80;;;;;;;19.92;50.99;94721.41;4163706;28;20049;-53
2022/07/15 04:08:26;;;;;;;6.45;3.45;;;;;;;19.98;50.77;94720.56;4171062;28;20048;-58
2022/07/15 04:10:27;;;;;;;9.18;3.22;;;;;;;20.04;50.62;94721.53;4160434;28;20110;-57
2022/07/15 04:12:29;;;;;;;8.45;3.35;;;;;;;20.01;50.53;94717.44;4160365;28;20498;-55
2022/07/15 04:14:31;;;;;;;7.35;3.00;;;;;;;20.07;50.45;94717.59;4161487;28;20196;-56
2022/07/15 04:16:32;;;;;;;6.38;3.25;;;;;;;20.09;50.35;94715.53;4169109;28;20138;-55
2022/07/15 04:18:34;;;;;;;12.13;3.50;;;;;;;20.12;50.38;94713.28;4166231;28;20049;-56
2022/07/15 04:20:36;;;;;;;9.25;3.20;;;;;;;20.15;50.21;94723.47;4173720;28;20126;-55
2022/07/15 04:22:39;;;;;;;8.70;3.65;;;;;;;20.21;50.05;94717.28;4171535;28;20341;-52
2022/07/15 04:24:41;;;;;;;10.93;3.60;;;;;;;20.29;49.80;94718.84;4166334;28;20053;-54
2022/07/15 04:26:43;;;;;;;8.88;3.50;;;;;;;20.30;49.74;94722.31;4171427;28;20083;-56
2022/07/15 04:28:45;;;;;;;7.32;3.72;;;;;;;20.33;49.51;94720.06;4163602;28;20057;-54
2022/07/15 04:30:46;;;;;;;9.95;3.40;;;;;;;20.35;49.68;94717.97;4163947;28;20048;-56
2022/07/15 04:32:48;;;;;;;4.95;3.33;;;;;;;20.40;49.51;94718.13;4168077;28;20123;-53
2022/07/15 04:34:50;;;;;;;7.55;3.33;;;;;;;20.44;49.29;94715.84;4170251;28;20072;-54
2022/07/15 04:36:52;;;;;;;10.30;3.28;;;;;;;20.44;49.23;94715.84;4165449;28;20063;-56
2022/07/15 04:38:53;;;;;;;7.53;3.22;;;;;;;20.48;49.39;94721.53;4160593;28;20061;-55
2022/07/15 04:40:55;;;;;;;6.88;3.00;;;;;;;20.41;49.58;94717.13;4174068;28;20053;-55
2022/07/15 04:42:58;;;;;;;9.75;2.95;;;;;;;20.47;49.59;94720.72;4159778;28;20077;-62
2022/07/15 04:45:00;;;;;;;12.83;3.40;;;;;;;20.60;49.51;94717.16;4169837;28;20083;-56
2022/07/15 04:47:05;;;;;;;12.93;3.65;;;;;;;20.63;49.10;94714.06;4176602;28;20122;-55
2022/07/15 04:51:27;;;;;;;5.88;3.05;;;;;;;20.88;48.44;94716.63;4176612;28;20493;-56
2022/07/15 04:53:28;;;;;;;6.30;3.13;;;;;;;20.91;48.34;94718.88;4167980;28;20049;-55
2022/07/15 04:55:30;;;;;;;6.97;3.45;;;;;;;20.97;48.21;94719.81;4171135;28;20052;-57
2022/07/15 04:57:32;;;;;;;7.43;3.40;;;;;;;20.95;48.07;94727.19;4176711;28;20107;-56
2022/07/15 04:59:33;;;;;;;13.35;3.45;;;;;;;20.79;47.61;94726.75;4163336;28;20111;-59
2022/07/15 05:01:35;;;;;;;6.07;3.25;;;;;;;20.38;48.41;94717.53;4170895;28;20057;-57
2022/07/15 05:03:37;;;;;;;7.18;3.33;;;;;;;20.30;49.11;94722.31;4166984;28;20056;-58
2022/07/15 05:05:39;;;;;;;6.30;3.15;;;;;;;20.42;49.44;94721.38;4176157;28;20052;-54
2022/07/15 05:07:41;;;;;;;10.75;2.80;;;;;;;20.30;48.86;94720.47;4163075;28;20045;-53
2022/07/15 05:09:43;;;;;;;6.57;3.03;;;;;;;20.37;48.86;94715.09;4158886;28;20135;-56
2022/07/15 05:11:44;;;;;;;6.07;3.00;;;;;;;20.56;49.00;94723.91;4160016;28;20045;-57
2022/07/15 05:13:46;;;;;;;6.47;3.38;;;;;;;20.76;48.30;94723.75;4168844;28;20093;-58
2022/07/15 05:15:48;;;;;;;6.95;3.63;;;;;;;20.88;48.32;94729.13;4168622;28;20095;-55
2022/07/15 05:17:49;;;;;;;11.75;4.45;;;;;;;21.02;48.09;94727.97;4161695;28;20491;-57
2022/07/15 05:19:52;;;;;;;8.27;3.58;;;;;;;21.20;47.68;94724.44;4160978;28;20472;-53
2022/07/15 05:21:53;;;;;;;5.22;2.70;;;;;;;21.27;47.04;94730.50;4176336;28;20129;-52
2022/07/15 05:23:55;;;;;;;10.52;3.90;;;;;;;21.27;46.80;94719.84;4173352;28;20053;-54
2022/07/15 05:26:18;;;;;;;5.30;3.47;;;;;;;21.37;46.56;94724.66;4173242;28;20577;-56
2022/07/15 05:28:20;;;;;;;8.00;4.30;;;;;;;21.40;46.85;94724.19;4161532;28;20096;-54
2022/07/15 05:30:22;;;;;;;7.65;3.70;;;;;;;21.49;46.34;94728.22;4165028;28;20374;-55
2022/07/15 05:32:23;;;;;;;5.65;4.55;;;;;;;21.49;46.61;94714.88;4175137;28;20242;-57
2022/07/15 05:34:25;;;;;;;4.95;2.47;;;;;;;21.54;46.41;94712.34;4170440;28;20049;-55
2022/07/15 05:36:27;;;;;;;4.60;2.40;;;;;;;21.65;46.30;94711.56;4159283;28;20429;-56
2022/07/15 05:38:29;;;;;;;6.65;2.78;;;;;;;21.83;46.24;94712.53;4165604;28;20049;-54
2022/07/15 05:40:30;;;;;;;4.07;2.60;;;;;;;21.91;45.64;94712.19;4170666;28;20088;-54
2022/07/15 05:42:32;;;;;;;7.90;2.63;;;;;;;21.97;45.55;94711.28;4159300;28;20045;-54
2022/07/15 05:44:34;;;;;;;5.57;2.40;;;;;;;22.11;44.99;94719.06;4159955;28;20128;-56
2022/07/15 05:46:36;;;;;;;5.53;2.85;;;;;;;22.16;44.71;94709.34;4159349;28;20518;-55
2022/07/15 05:48:39;;;;;;;5.15;3.05;;;;;;;22.16;45.03;94716.53;4158379;28;20061;-54
2022/07/15 05:50:40;;;;;;;8.73;3.72;;;;;;;22.17;44.78;94716.28;4159544;28;20115;-54
2022/07/15 05:52:42;;;;;;;6.45;2.55;;;;;;;22.24;44.69;94718.88;4158977;28;20061;-53
2022/07/15 05:54:44;;;;;;;5.68;3.15;;;;;;;22.34;44.66;94712.97;4159639;28;20461;-54
2022/07/15 05:56:46;;;;;;;5.80;2.67;;;;;;;22.27;44.34;94710.44;4167736;28;20108;-54
2022/07/15 05:58:48;;;;;;;5.07;2.35;;;;;;;21.80;45.42;94713.81;4160683;28;20049;-54
2022/07/15 06:00:51;;;;;;;5.40;3.22;;;;;;;21.80;46.14;94718.34;4172651;28;20110;-57
2022/07/15 06:02:52;;;;;;;8.90;2.47;;;;;;;21.85;44.91;94710.44;4157422;28;20123;-55
2022/07/15 06:04:54;;;;;;;4.97;2.50;;;;;;;21.89;45.01;94716.94;4162329;28;20056;-55
2022/07/15 06:06:56;;;;;;;5.20;2.75;;;;;;;22.06;44.75;94717.91;4175924;28;20496;-53
2022/07/15 06:08:57;;;;;;;8.00;2.80;;;;;;;22.20;45.26;94715.00;4169325;28;20148;-57
2022/07/15 06:10:59;;;;;;;4.78;2.50;;;;;;;22.11;44.56;94716.41;4160775;28;20367;-54
2022/07/15 06:13:01;;;;;;;9.20;2.75;;;;;;;21.82;45.41;94718.91;4160233;28;20424;-56
2022/07/15 06:15:03;;;;;;;5.53;2.92;;;;;;;21.92;45.63;94721.84;4159284;28;20411;-54
2022/07/15 06:17:04;;;;;;;7.75;3.08;;;;;;;22.13;45.43;94727.66;4173489;28;20049;-55
2022/07/15 06:19:08;;;;;;;5.70;2.60;;;;;;;22.31;45.11;94716.94;4173934;28;20045;-54
2022/07/15 06:21:11;;;;;;;10.77;2.90;;;;;;;22.39;44.41;94724.59;4168604;28;20537;-53
2022/07/15 06:23:13;;;;;;;6.22;2.80;;;;;;;22.55;44.83;94715.06;4164679;28;20148;-58
2022/07/15 06:25:15;;;;;;;7.60;2.90;;;;;;;22.52;44.16;94717.38;4159298;28;20463;-56
2022/07/15 06:27:17;;;;;;;9.25;2.95;;;;;;;22.35;44.93;94720.75;4166914;28;20042;-56
2022/07/15 06:29:19;;;;;;;5.40;2.85;;;;;;;22.05;45.52;94726.97;4165167;28;20133;-56
2022/07/15 06:31:21;;;;;;;6.55;3.30;;;;;;;22.06;45.38;94717.91;4172817;28;20339;-56
2022/07/15 06:33:24;;;;;;;6.43;2.95;;;;;;;22.06;45.46;94717.91;4176860;28;20079;-55
2022/07/15 06:35:25;;;;;;;7.72;3.05;;;;;;;22.15;44.98;94730.91;4178399;28;20107;-56
2022/07/15 06:37:27;;;;;;;9.63;3.13;;;;;;;22.33;44.88;94717.50;4165124;28;20072;-54
2022/07/15 06:39:29;;;;;;;5.30;3.22;;;;;;;22.59;44.92;94723.44;4172747;28;20530;-55
2022/07/15 06:41:31;;;;;;;9.43;2.83;;;;;;;22.80;43.95;94717.47;4162436;28;20490;-55
2022/07/15 06:43:33;;;;;;;8.40;3.53;;;;;;;22.81;43.91;94721.78;4161103;28;20061;-57
2022/07/15 06:45:34;;;;;;;8.80;2.80;;;;;;;22.85;43.94;94714.91;4162313;28;20472;-55
2022/07/15 06:47:40;;;;;;;7.03;2.85;;;;;;;23.03;43.54;94711.28;4176173;28;20059;-55
2022/07/15 06:49:41;;;;;;;7.40;3.13;;;;;;;23.17;43.57;94711.84;4178954;28;20219;-57
2022/07/15 06:51:44;;;;;;;8.77;3.17;;;;;;;22.99;44.26;94710.09;4178016;28;20139;-52
2022/07/15 06:53:46;;;;;;;6.53;3.42;;;;;;;22.98;44.10;94713.84;4167169;28;20497;-56
2022/07/15 06:55:47;;;;;;;10.98;3.95;;;;;;;22.77;44.61;94712.59;4175778;28;20489;-52
2022/07/15 06:57:49;;;;;;;7.22;3.60;;;;;;;22.86;44.57;94716.53;4178131;28;20115;-53
2022/07/15 06:59:51;;;;;;;7.65;3.42;;;;;;;22.93;44.24;94711.06;4173241;28;20689;-52
2022/07/15 07:01:52;;;;;;;8.95;2.97;;;;;;;23.07;44.19;94711.66;4169870;28;20634;-50
2022/07/15 07:03:54;;;;;;;8.52;3.40;;;;;;;23.22;43.47;94709.28;4176793;28;20103;-53
2022/07/15 07:05:59;;;;;;;8.18;3.40;;;;;;;23.39;43.72;94709.31;4163400;28;20049;-52
2022/07/15 07:08:01;;;;;;;9.80;4.00;;;;;;;23.60;43.81;94715.88;4175498;28;20482;-50
2022/07/15 07:10:03;;;;;;;11.77;4.38;;;;;;;23.73;43.17;94712.09;4161587;28;20141;-49
2022/07/15 07:12:05;;;;;;;8.48;2.85;;;;;;;23.84;42.37;94705.88;4170352;28;20094;-53
2022/07/15 07:14:06;;;;;;;5.95;3.15;;;;;;;24.00;42.26;94700.78;4177506;28;20079;-55
2022/07/15 07:16:08;;;;;;;6.97;3.05;;;;;;;24.11;42.04;94708.75;4170764;28;20053;-54
2022/07/15 07:18:10;;;;;;;6.95;3.17;;;;;;;24.12;42.11;94706.88;4176311;28;20333;-55
2022/07/15 07:20:12;;;;;;;6.82;2.78;;;;;;;24.06;41.08;94708.66;4165266;28;20099;-57
2022/07/15 07:22:14;;;;;;;6.78;2.60;;;;;;;24.06;40.64;94702.50;4160449;28;20041;-56
2022/07/15 07:24:16;;;;;;;3.60;2.17;;;;;;;23.91;40.02;94706.53;4165610;28;20104;-54
2022/07/15 07:26:17;;;;;;;6.95;2.92;;;;;;;23.84;40.83;94695.19;4170941;28;20420;-54
2022/07/15 07:28:19;;;;;;;8.55;3.10;;;;;;;24.02;41.39;94698.69;4161314;28;20061;-54
2022/07/15 07:30:21;;;;;;;7.15;3.58;;;;;;;24.03;41.66;94697.63;4171540;28;20053;-55
2022/07/15 07:32:23;;;;;;;5.03;2.50;;;;;;;24.22;41.12;94699.00;4173819;28;20059;-54
2022/07/15 07:34:25;;;;;;;5.93;2.10;;;;;;;24.40;40.51;94691.78;4166664;28;20143;-53
2022/07/15 07:36:27;;;;;;;9.60;3.30;;;;;;;24.38;41.04;94699.25;4169249;28;20099;-55
2022/07/15 07:38:29;;;;;;;6.25;2.60;;;;;;;24.19;40.53;94693.34;4161812;28;20079;-55
2022/07/15 07:40:31;;;;;;;5.18;3.10;;;;;;;24.05;41.04;94696.34;4174932;28;20114;-54
2022/07/15 07:42:32;;;;;;;8.77;3.33;;;;;;;24.12;41.14;94694.31;4173595;28;20056;-54
2022/07/15 07:44:34;;;;;;;10.52;3.67;;;;;;;24.05;41.29;94707.03;4167127;28;20057;-53
2022/07/15 07:46:36;;;;;;;7.00;2.80;;;;;;;24.22;40.52;94700.84;4169733;28;20057;-56
2022/07/15 07:48:39;;;;;;;9.30;2.88;;;;;;;24.09;40.60;94705.50;4159706;28;20136;-55
2022/07/15 07:50:40;;;;;;;7.47;3.42;;;;;;;24.35;40.84;94700.56;4174308;28;20118;-54
2022/07/15 07:52:42;;;;;;;10.90;3.05;;;;;;;24.42;40.04;94705.72;4161232;28;20054;-57
2022/07/15 07:54:44;;;;;;;9.02;2.85;;;;;;;24.58;40.33;94694.19;4166182;28;20056;-57
2022/07/15 07:56:46;;;;;;;9.93;3.15;;;;;;;24.76;39.97;94700.31;4169590;28;20049;-55
2022/07/15 07:58:47;;;;;;;10.45;2.75;;;;;;;24.93;39.47;94691.19;4171601;28;20053;-55
2022/07/15 08:00:51;;;;;;;3.92;2.67;;;;;;;25.17;39.18;94687.44;4164408;28;20104;-56
2022/07/15 08:02:55;;;;;;;6.18;2.60;;;;;;;25.39;39.06;94685.59;4162205;28;20136;-56
2022/07/15 08:04:57;;;;;;;10.48;3.22;;;;;;;25.37;38.25;94689.59;4169623;28;20051;-55
2022/07/15 08:06:58;;;;;;;8.88;3.08;;;;;;;25.22;37.91;94687.53;4169085;28;20450;-52
2022/07/15 08:09:01;;;;;;;7.40;3.05;;;;;;;25.16;38.65;94686.63;4177727;28;20063;-56
2022/07/15 08:11:02;;;;;;;8.07;3.22;;;;;;;25.41;38.36;94686.16;4163426;28;20119;-57
2022/07/15 08:13:04;;;;;;;9.40;3.33;;;;;;;25.63;38.23;94682.59;4173708;28;20044;-55
2022/07/15 08:15:10;;;;;;;13.25;2.50;;;;;;;25.52;36.29;94687.06;4166103;28;20198;-55
2022/07/15 08:17:12;;;;;;;7.90;3.30;;;;;;;25.04;37.70;94688.66;4173661;28;20053;-55
2022/07/15 08:19:15;;;;;;;7.28;2.95;;;;;;;24.92;38.00;94684.19;4172213;28;20079;-55
2022/07/15 08:21:17;;;;;;;12.00;3.40;;;;;;;25.09;38.02;94683.34;4167458;28;20044;-55
2022/07/15 08:23:22;;;;;;;6.10;2.80;;;;;;;25.41;37.63;94679.97;4165430;28;20053;-57
2022/07/15 08:25:29;;;;;;;5.70;2.92;;;;;;;25.69;36.97;94677.03;4161343;28;20085;-54
2022/07/15 08:27:30;;;;;;;10.38;3.55;;;;;;;25.95;36.60;94675.41;4163949;28;20057;-58
2022/07/15 08:29:32;;;;;;;11.70;3.30;;;;;;;25.97;35.52;94675.16;4170516;28;20125;-55
2022/07/15 08:31:35;;;;;;;10.32;3.22;;;;;;;26.04;35.71;94674.94;4160663;28;20057;-55
2022/07/15 08:33:37;;;;;;;5.97;3.28;;;;;;;26.12;35.61;94674.47;4171942;28;20172;-53
2022/07/15 08:35:40;;;;;;;7.95;3.08;;;;;;;26.14;35.84;94678.53;4175926;28;20132;-55
2022/07/15 08:37:42;;;;;;;8.20;3.30;;;;;;;26.26;35.64;94686.38;4171915;28;20442;-53
2022/07/15 08:39:44;;;;;;;7.55;3.50;;;;;;;26.43;36.02;94680.06;4167440;28;20075;-56
2022/07/15 08:41:46;;;;;;;5.47;2.83;;;;;;;26.59;35.33;94672.91;4167115;28;20041;-54
2022/07/15 08:43:48;;;;;;;6.38;3.15;;;;;;;26.79;35.55;94667.66;4170924;28;20053;-56
2022/07/15 08:45:50;;;;;;;10.95;3.28;;;;;;;26.86;35.03;94664.75;4161808;28;20084;-55
2022/07/15 08:47:55;;;;;;;7.65;2.92;;;;;;;26.87;34.96;94659.09;4170980;28;20101;-55
2022/07/15 08:49:57;;;;;;;9.23;3.30;;;;;;;26.94;35.28;94664.25;4160906;28;20528;-55
2022/07/15 08:52:00;;;;;;;10.23;3.50;;;;;;;26.94;35.26;94659.66;4160635;28;20053;-55
2022/07/15 08:54:02;;;;;;;12.82;3.78;;;;;;;26.94;35.29;94659.66;4159055;28;20481;-54
2022/07/15 08:56:05;;;;;;;11.68;3.17;;;;;;;26.80;35.32;94663.09;4176261;28;20048;-54
2022/07/15 08:58:06;;;;;;;9.23;3.25;;;;;;;26.74;35.68;94670.34;4170385;28;20512;-55
2022/07/15 09:00:10;;;;;;;6.90;3.47;;;;;;;26.63;35.54;94664.09;4160161;28;20065;-55
2022/07/15 09:02:14;;;;;;;8.07;3.25;;;;;;;26.52;35.71;94665.91;4170881;28;20136;-56
2022/07/15 09:04:17;;;;;;;8.40;2.88;;;;;;;26.68;35.72;94663.31;4160720;28;20060;-55
2022/07/15 09:06:39;;;;;;;4.83;2.70;;;;;;;26.72;34.68;94665.22;4159944;28;21002;-54
2022/07/15 09:08:41;;;;;;;10.20;3.05;;;;;;;26.76;34.57;94662.81;4160215;28;20357;-57
2022/07/15 09:10:46;;;;;;;8.93;3.17;;;;;;;26.71;34.52;94654.72;4170867;28;20122;-57
2022/07/15 09:12:50;;;;;;;5.63;3.05;;;;;;;26.86;34.47;94654.00;4161592;28;20045;-55
2022/07/15 09:14:51;;;;;;;8.82;3.20;;;;;;;27.08;34.06;94651.94;4176305;28;20206;-56
2022/07/15 09:17:09;;;;;;;7.82;2.78;;;;;;;27.30;34.32;94657.16;4176019;28;20756;-57
2022/07/15 09:19:11;;;;;;;4.15;3.00;;;;;;;27.12;33.23;94650.31;4163295;28;20048;-55
2022/07/15 09:21:23;;;;;;;12.57;3.08;;;;;;;27.19;33.94;94655.47;4168826;28;20493;-57
2022/07/15 09:23:31;;;;;;;13.48;2.78;;;;;;;27.34;33.94;94646.66;4159470;28;20083;-55
2022/07/15 09:25:34;;;;;;;4.45;2.40;;;;;;;27.45;33.27;94656.38;4173292;28;20111;-56
2022/07/15 09:27:41;;;;;;;7.38;3.30;;;;;;;27.60;33.05;94650.22;4172456;28;20061;-56
2022/07/15 09:34:24;;;;;;;4.90;2.17;;;;;;;28.07;32.52;94654.59;4175740;28;20053;-51
2022/07/15 09:36:31;;;;;;;8.48;3.17;;;;;;;27.92;32.61;94649.16;4167474;28;20053;-52
2022/07/15 09:38:41;;;;;;;10.48;3.10;;;;;;;27.52;32.66;94648.84;4160160;28;20045;-53
2022/07/15 09:40:48;;;;;;;9.68;3.15;;;;;;;27.48;33.01;94653.13;4159449;28;20514;-49
2022/07/15 09:43:10;;;;;;;6.47;2.63;;;;;;;27.53;33.57;94650.47;4164178;28;20040;-51
2022/07/15 09:45:21;;;;;;;4.03;2.33;;;;;;;27.66;32.53;94649.16;4165675;28;20055;-53